Time;durP1;ratioP1;P1;durP2;ratioP2;P2;SDS_P1;SDS_P2;PMS_P1;PMS_P2;Temp;Humidity;BMP_temperature;BMP_pressure;BME280_temperature;BME280_humidity;BME280_pressure;Samples;Min_cycle;Max_cycle;Signal;HPM_P1;HPM_P2
2022/10/13 00:01:51;;;;;;;14.43;5.93;;;9.40;99.90;;;;;;5077621;28;20119;-70
2022/10/13 00:04:17;;;;;;;16.60;5.72;;;9.50;99.90;;;;;;5075541;28;20040;-71
2022/10/13 00:06:43;;;;;;;13.43;5.60;;;9.50;99.90;;;;;;5092831;28;20070;-75
2022/10/13 00:09:08;;;;;;;12.57;5.05;;;9.40;99.90;;;;;;5092735;28;20043;-73
2022/10/13 00:11:34;;;;;;;16.17;6.25;;;9.50;99.90;;;;;;5093080;28;20118;-77
2022/10/13 00:14:02;;;;;;;15.23;5.28;;;9.50;99.90;;;;;;5075275;28;20495;-76
2022/10/13 00:16:28;;;;;;;17.25;6.25;;;9.50;99.90;;;;;;5070719;28;20489;-73
2022/10/13 00:18:54;;;;;;;16.25;5.88;;;9.50;99.90;;;;;;5078250;28;20200;-76
2022/10/13 00:21:22;;;;;;;18.67;6.88;;;9.60;99.90;;;;;;5093315;28;20533;-72
2022/10/13 00:23:49;;;;;;;16.58;6.22;;;9.60;99.90;;;;;;5057815;28;20094;-76
2022/10/13 00:26:16;;;;;;;15.75;5.57;;;9.60;99.90;;;;;;5072172;28;20076;-74
2022/10/13 00:28:42;;;;;;;13.98;6.05;;;9.60;99.90;;;;;;5072275;28;20044;-70
2022/10/13 00:31:29;;;;;;;16.27;6.45;;;9.60;99.90;;;;;;5075655;28;20116;-72
2022/10/13 00:33:57;;;;;;;18.00;6.40;;;9.60;99.90;;;;;;5092516;28;20231;-77
2022/10/13 00:36:23;;;;;;;14.68;5.68;;;9.60;99.90;;;;;;5074699;28;20441;-70
2022/10/13 00:38:49;;;;;;;14.75;6.30;;;9.60;99.90;;;;;;5091922;28;20075;-71
2022/10/13 00:41:15;;;;;;;12.70;5.65;;;9.60;99.90;;;;;;5092006;28;20036;-70
2022/10/13 00:44:04;;;;;;;13.98;5.70;;;9.60;99.90;;;;;;5092133;28;20120;-70
2022/10/13 00:46:35;;;;;;;13.93;5.07;;;9.60;99.90;;;;;;5091610;28;20078;-72
2022/10/13 00:49:07;;;;;;;11.60;5.65;;;9.50;99.90;;;;;;5081346;28;20074;-70
2022/10/13 00:51:39;;;;;;;19.23;5.97;;;9.60;99.90;;;;;;5082897;28;20058;-73
2022/10/13 00:54:07;;;;;;;15.45;6.03;;;9.70;99.90;;;;;;5070227;28;20049;-74
2022/10/13 00:56:35;;;;;;;13.68;5.60;;;9.60;99.90;;;;;;5060526;28;20133;-71
2022/10/13 00:59:03;;;;;;;16.02;5.35;;;9.70;99.90;;;;;;5054439;28;20497;-70
2022/10/13 01:01:29;;;;;;;18.38;6.32;;;9.70;99.90;;;;;;5071716;28;20040;-72
2022/10/13 01:03:55;;;;;;;;;;;9.70;99.90;;;;;;5072458;28;20048;-74
2022/10/13 01:06:21;;;;;;;13.38;5.88;;;9.70;99.90;;;;;;5054264;28;19943;-70
2022/10/13 01:08:47;;;;;;;14.20;5.88;;;9.70;99.90;;;;;;5071228;28;20056;-70
2022/10/13 01:11:32;;;;;;;20.30;7.10;;;9.70;99.90;;;;;;5069544;28;20106;-71
2022/10/13 01:14:34;;;;;;;14.45;6.38;;;9.70;99.90;;;;;;5052121;28;20135;-70
2022/10/13 01:17:11;;;;;;;15.35;6.47;;;9.70;99.90;;;;;;5017025;28;20060;-71
2022/10/13 01:20:02;;;;;;;21.10;6.20;;;9.80;99.90;;;;;;5052171;28;20076;-77
2022/10/13 01:22:54;;;;;;;17.15;5.93;;;9.70;99.90;;;;;;5052547;28;20048;-70
2022/10/13 01:25:57;;;;;;;15.07;5.90;;;9.70;99.90;;;;;;5036470;28;20513;-73
2022/10/13 01:28:38;;;;;;;17.25;5.90;;;9.70;99.90;;;;;;5070751;28;20041;-70
2022/10/13 01:31:35;;;;;;;15.30;6.43;;;9.70;99.90;;;;;;5070709;28;20547;-75
2022/10/13 01:34:12;;;;;;;15.70;6.07;;;9.70;99.90;;;;;;5071451;28;20080;-71
2022/10/13 01:36:58;;;;;;;14.20;5.78;;;9.70;99.90;;;;;;5072219;28;20445;-71
2022/10/13 01:40:02;;;;;;;14.23;5.53;;;9.80;99.90;;;;;;5071172;28;20048;-70
2022/10/13 01:42:41;;;;;;;16.10;6.05;;;9.70;99.90;;;;;;5070290;28;20478;-72
2022/10/13 01:45:10;;;;;;;17.33;6.32;;;9.70;99.90;;;;;;5053888;28;20106;-70
2022/10/13 01:47:36;;;;;;;18.52;6.28;;;9.70;99.90;;;;;;5070839;28;20072;-70
2022/10/13 01:50:04;;;;;;;13.27;6.20;;;9.70;99.90;;;;;;5052839;28;20637;-70
2022/10/13 01:52:34;;;;;;;16.30;5.63;;;9.70;99.90;;;;;;5071871;28;20051;-73
2022/10/13 01:55:10;;;;;;;16.63;5.95;;;9.70;99.90;;;;;;5069161;28;20044;-70
2022/10/13 01:57:44;;;;;;;18.75;6.55;;;9.60;99.90;;;;;;5070435;28;20401;-73
2022/10/13 02:00:19;;;;;;;14.18;6.03;;;9.70;99.90;;;;;;5033908;28;20091;-70
2022/10/13 02:03:10;;;;;;;19.88;6.10;;;9.60;99.90;;;;;;5050163;28;20045;-77
2022/10/13 02:05:48;;;;;;;18.23;6.55;;;9.60;99.90;;;;;;5044613;28;20055;-70
2022/10/13 02:08:19;;;;;;;16.77;6.75;;;9.70;99.90;;;;;;5070851;28;20540;-70
2022/10/13 02:11:00;;;;;;;15.35;6.13;;;9.70;99.90;;;;;;5060656;28;20079;-76
2022/10/13 02:13:28;;;;;;;14.77;6.70;;;9.70;99.90;;;;;;5071375;28;20602;-70
2022/10/13 02:15:57;;;;;;;17.48;6.40;;;9.60;99.90;;;;;;5070150;28;20489;-70
2022/10/13 02:18:29;;;;;;;18.23;6.35;;;9.70;99.90;;;;;;5070513;28;20133;-71
2022/10/13 02:20:55;;;;;;;15.45;5.93;;;9.80;99.90;;;;;;5070111;28;20473;-70
2022/10/13 02:23:22;;;;;;;17.35;5.95;;;9.70;99.90;;;;;;5070824;28;20044;-71
2022/10/13 02:25:49;;;;;;;17.25;7.00;;;9.70;99.90;;;;;;5066882;28;20047;-77
2022/10/13 02:28:16;;;;;;;15.70;5.95;;;9.70;99.90;;;;;;5070548;28;20177;-70
2022/10/13 02:30:43;;;;;;;16.10;6.00;;;9.70;99.90;;;;;;5071078;28;20044;-72
2022/10/13 02:33:10;;;;;;;16.60;6.35;;;9.70;99.90;;;;;;5069569;28;20041;-71
2022/10/13 02:35:36;;;;;;;19.25;5.95;;;9.70;99.90;;;;;;5070639;28;20526;-70
2022/10/13 02:38:02;;;;;;;13.90;6.85;;;9.60;99.90;;;;;;5051943;28;20047;-70
2022/10/13 02:40:28;;;;;;;13.43;6.22;;;9.60;99.90;;;;;;5070212;28;20044;-70
2022/10/13 02:42:54;;;;;;;15.02;5.97;;;9.70;99.90;;;;;;5070052;28;20450;-73
2022/10/13 02:45:19;;;;;;;17.55;6.35;;;9.60;99.90;;;;;;5070905;28;20044;-70
2022/10/13 02:47:45;;;;;;;13.48;5.65;;;9.70;99.90;;;;;;5052182;28;20051;-76
2022/10/13 02:50:11;;;;;;;26.35;6.35;;;9.60;99.90;;;;;;5069939;28;20135;-71
2022/10/13 02:52:37;;;;;;;19.42;6.93;;;9.60;99.90;;;;;;5070839;28;20087;-71
2022/10/13 02:55:03;;;;;;;14.10;6.22;;;9.50;99.90;;;;;;5065356;28;20072;-71
2022/10/13 02:57:29;;;;;;;17.02;6.40;;;9.50;99.90;;;;;;5070467;28;20131;-70
2022/10/13 02:59:55;;;;;;;16.73;7.43;;;9.50;99.90;;;;;;5069846;28;20128;-72
2022/10/13 03:02:20;;;;;;;14.57;7.20;;;9.50;99.90;;;;;;5035513;28;20044;-72
2022/10/13 03:04:47;;;;;;;18.60;6.50;;;9.60;99.90;;;;;;5070522;28;20067;-76
2022/10/13 03:07:13;;;;;;;16.98;6.13;;;9.60;99.90;;;;;;5052591;28;20054;-70
2022/10/13 03:09:38;;;;;;;14.43;5.95;;;9.60;99.90;;;;;;5069759;28;20036;-75
2022/10/13 03:12:04;;;;;;;18.15;6.60;;;9.70;99.90;;;;;;5069762;28;20162;-72
2022/10/13 03:14:30;;;;;;;20.08;7.25;;;9.70;99.90;;;;;;5069794;28;20075;-75
2022/10/13 03:16:55;;;;;;;15.18;6.53;;;9.70;99.90;;;;;;5068286;28;20059;-73
2022/10/13 03:19:21;;;;;;;15.90;7.50;;;9.70;99.90;;;;;;5069843;28;20044;-70
2022/10/13 03:21:47;;;;;;;16.90;6.63;;;9.70;99.90;;;;;;5051785;28;20486;-75
2022/10/13 03:24:12;;;;;;;17.17;7.07;;;9.80;99.90;;;;;;5048979;28;20049;-72
2022/10/13 03:26:38;;;;;;;19.13;7.30;;;9.90;99.90;;;;;;5066824;28;20548;-72
2022/10/13 03:29:04;;;;;;;21.13;7.18;;;9.80;99.90;;;;;;5066352;28;20052;-70
2022/10/13 03:31:29;;;;;;;20.95;7.78;;;10.00;99.90;;;;;;5049356;28;20033;-71
2022/10/13 03:33:55;;;;;;;14.20;6.75;;;9.90;99.90;;;;;;5049529;28;20045;-75
2022/10/13 03:36:21;;;;;;;17.20;6.78;;;10.00;99.90;;;;;;5050083;28;20076;-72
2022/10/13 03:38:46;;;;;;;25.15;8.35;;;10.00;99.90;;;;;;5049940;28;20041;-70
2022/10/13 03:41:15;;;;;;;20.40;6.93;;;10.00;99.90;;;;;;5048929;28;20048;-70
2022/10/13 03:43:42;;;;;;;20.10;7.10;;;10.00;99.90;;;;;;5050423;28;20048;-71
2022/10/13 03:46:10;;;;;;;18.92;8.13;;;10.10;99.90;;;;;;5057950;28;20040;-70
2022/10/13 03:48:36;;;;;;;21.33;7.40;;;10.10;99.90;;;;;;5068978;28;20559;-70
2022/10/13 03:51:07;;;;;;;16.92;6.65;;;10.10;99.90;;;;;;5049377;28;20056;-70
2022/10/13 03:53:33;;;;;;;20.00;7.28;;;10.10;99.90;;;;;;5049757;28;20466;-70
2022/10/13 03:55:59;;;;;;;;;;;10.10;99.90;;;;;;5051208;28;20376;-70
2022/10/13 03:58:27;;;;;;;15.05;7.57;;;10.20;99.90;;;;;;5070083;28;19920;-70
2022/10/13 04:00:54;;;;;;;18.02;6.82;;;10.10;99.90;;;;;;5047402;28;20040;-77
2022/10/13 04:03:19;;;;;;;;;;;10.20;99.90;;;;;;5049266;28;20045;-71
2022/10/13 04:05:45;;;;;;;19.38;7.35;;;10.10;99.90;;;;;;5051962;28;20003;-71
2022/10/13 04:08:11;;;;;;;18.27;7.43;;;10.20;99.90;;;;;;5063294;28;20051;-73
2022/10/13 04:10:37;;;;;;;18.23;8.75;;;10.20;99.90;;;;;;5049552;28;20044;-71
2022/10/13 04:13:04;;;;;;;23.02;7.78;;;10.20;99.90;;;;;;5031382;28;20044;-71
2022/10/13 04:15:34;;;;;;;15.80;6.93;;;10.20;99.90;;;;;;5059665;28;20055;-70
2022/10/13 04:17:59;;;;;;;14.75;7.20;;;10.20;99.90;;;;;;5050440;28;20052;-70
2022/10/13 04:20:25;;;;;;;18.25;7.15;;;10.30;99.90;;;;;;5069660;28;20044;-70
2022/10/13 04:22:51;;;;;;;17.48;7.28;;;10.20;99.90;;;;;;5069948;28;20041;-71
2022/10/13 04:25:17;;;;;;;17.70;8.00;;;10.20;99.90;;;;;;5064341;28;20056;-70
2022/10/13 04:27:42;;;;;;;22.60;8.10;;;10.30;99.90;;;;;;5071082;28;20046;-71
2022/10/13 04:30:09;;;;;;;20.52;8.10;;;10.30;99.90;;;;;;5072705;28;20040;-71
2022/10/13 04:32:34;;;;;;;16.00;6.88;;;10.30;99.90;;;;;;5083753;28;20053;-71
2022/10/13 04:35:00;;;;;;;20.42;7.88;;;10.30;99.90;;;;;;5052206;28;20051;-70
2022/10/13 04:37:25;;;;;;;23.50;7.95;;;10.30;99.90;;;;;;5035420;28;20092;-71
2022/10/13 04:39:51;;;;;;;19.27;7.80;;;10.30;99.90;;;;;;5062470;28;20036;-70
2022/10/13 04:42:17;;;;;;;17.80;7.45;;;10.40;99.90;;;;;;5072387;28;20488;-70
2022/10/13 04:44:42;;;;;;;13.68;7.35;;;10.40;99.90;;;;;;5072832;28;20456;-70
2022/10/13 04:47:08;;;;;;;17.25;7.32;;;10.30;99.90;;;;;;5051610;28;20055;-70
2022/10/13 04:49:34;;;;;;;13.43;6.40;;;10.40;99.90;;;;;;5072595;28;20059;-70
2022/10/13 04:51:59;;;;;;;21.42;7.93;;;10.40;99.90;;;;;;5064268;28;20120;-77
2022/10/13 04:54:25;;;;;;;24.88;8.05;;;10.40;99.90;;;;;;5055360;28;20460;-70
2022/10/13 04:56:51;;;;;;;21.52;7.50;;;10.40;99.90;;;;;;5058842;28;20461;-70
2022/10/13 04:59:16;;;;;;;23.50;7.43;;;10.40;99.90;;;;;;5070475;28;20642;-73
2022/10/13 05:01:42;;;;;;;18.48;8.30;;;10.50;99.90;;;;;;5071690;28;20400;-72
2022/10/13 05:04:09;;;;;;;17.42;7.75;;;10.50;99.90;;;;;;5071027;28;20114;-71
2022/10/13 05:06:38;;;;;;;18.95;7.78;;;10.50;99.90;;;;;;5072741;28;20048;-71
2022/10/13 05:09:04;;;;;;;15.70;7.43;;;10.50;99.90;;;;;;5071113;28;20134;-72
2022/10/13 05:11:31;;;;;;;16.98;7.20;;;10.50;99.90;;;;;;5042629;28;20040;-70
2022/10/13 05:13:57;;;;;;;17.95;7.72;;;10.50;99.90;;;;;;5058892;28;20047;-76
2022/10/13 05:16:24;;;;;;;24.08;9.05;;;10.50;99.90;;;;;;5070989;28;20040;-70
2022/10/13 05:18:52;;;;;;;18.40;8.25;;;10.50;99.90;;;;;;5072513;28;20049;-70
2022/10/13 05:21:24;;;;;;;23.25;7.82;;;10.60;99.90;;;;;;5071507;28;20621;-70
2022/10/13 05:23:54;;;;;;;17.25;7.60;;;10.60;99.90;;;;;;5054066;28;20063;-70
2022/10/13 05:26:27;;;;;;;23.85;8.52;;;10.60;99.90;;;;;;5071121;28;20044;-70
2022/10/13 05:28:54;;;;;;;19.38;7.80;;;10.60;99.90;;;;;;5072451;28;20093;-70
2022/10/13 05:31:22;;;;;;;21.67;9.05;;;10.60;99.90;;;;;;5048734;28;20147;-70
2022/10/13 05:33:49;;;;;;;24.58;8.40;;;10.70;99.90;;;;;;5072136;28;20362;-71
2022/10/13 05:36:24;;;;;;;17.45;7.50;;;10.70;99.90;;;;;;5070654;28;20040;-71
2022/10/13 05:38:51;;;;;;;18.52;8.02;;;10.70;99.90;;;;;;5071675;28;20044;-71
2022/10/13 05:41:17;;;;;;;20.52;7.70;;;10.70;99.90;;;;;;5070765;28;20044;-70
2022/10/13 05:43:43;;;;;;;16.63;7.38;;;10.70;99.90;;;;;;5054408;28;20101;-70
2022/10/13 05:46:09;;;;;;;22.42;8.73;;;10.70;99.90;;;;;;5061396;28;20132;-77
2022/10/13 05:48:34;;;;;;;23.10;8.95;;;10.70;99.90;;;;;;5052013;28;20088;-70
2022/10/13 05:51:05;;;;;;;20.50;7.80;;;10.70;99.90;;;;;;5036350;28;20131;-78
2022/10/13 05:53:33;;;;;;;21.80;8.35;;;10.70;99.90;;;;;;5051485;28;20044;-71
2022/10/13 05:56:05;;;;;;;23.42;8.65;;;10.70;99.90;;;;;;5042197;28;20424;-76
2022/10/13 05:58:38;;;;;;;23.27;8.82;;;10.70;99.90;;;;;;5071289;28;20165;-70
2022/10/13 06:01:10;;;;;;;24.02;8.90;;;10.80;99.90;;;;;;5050714;28;20508;-78
2022/10/13 06:03:37;;;;;;;23.52;8.20;;;10.80;99.90;;;;;;5051649;28;20044;-74
2022/10/13 06:06:03;;;;;;;22.30;8.65;;;10.80;99.90;;;;;;5051107;28;20561;-78
2022/10/13 06:08:29;;;;;;;22.45;8.23;;;10.80;99.90;;;;;;5064585;28;20052;-70
2022/10/13 06:10:55;;;;;;;17.20;8.05;;;10.80;99.90;;;;;;5053119;28;20044;-72
2022/10/13 06:13:20;;;;;;;20.70;9.02;;;10.80;99.90;;;;;;5051799;28;20052;-76
2022/10/13 06:15:46;;;;;;;23.63;8.13;;;10.80;99.90;;;;;;5068778;28;20052;-71
2022/10/13 06:18:12;;;;;;;17.15;8.02;;;10.80;99.90;;;;;;5051957;28;20377;-70
2022/10/13 06:20:38;;;;;;;20.98;8.13;;;10.80;99.90;;;;;;5053131;28;20186;-71
2022/10/13 06:23:03;;;;;;;19.05;8.10;;;10.80;99.90;;;;;;5018882;28;20048;-76
2022/10/13 06:25:29;;;;;;;18.92;8.35;;;10.90;99.90;;;;;;5050387;28;20147;-70
2022/10/13 06:27:59;;;;;;;17.65;8.60;;;10.90;99.90;;;;;;5042189;28;20044;-69
2022/10/13 06:30:25;;;;;;;17.52;7.85;;;10.90;99.90;;;;;;5070375;28;20052;-71
2022/10/13 06:32:54;;;;;;;21.20;8.55;;;10.90;99.90;;;;;;5070282;28;20040;-68
2022/10/13 06:35:21;;;;;;;19.92;8.43;;;11.00;99.90;;;;;;5051783;28;20037;-71
2022/10/13 06:37:47;;;;;;;19.23;8.43;;;10.90;99.90;;;;;;5053062;28;20060;-73
2022/10/13 06:40:14;;;;;;;17.52;8.65;;;11.00;99.90;;;;;;5049561;28;20053;-70
2022/10/13 06:42:39;;;;;;;24.42;9.25;;;11.00;99.90;;;;;;5051393;28;20041;-70
2022/10/13 06:45:05;;;;;;;24.30;8.48;;;11.00;99.90;;;;;;5061327;28;20067;-76
2022/10/13 06:47:31;;;;;;;18.75;8.52;;;11.00;99.90;;;;;;5051362;28;20119;-71
2022/10/13 06:49:57;;;;;;;18.10;8.38;;;11.00;99.90;;;;;;5069288;28;20135;-72
2022/10/13 06:52:22;;;;;;;19.58;7.13;;;11.00;99.90;;;;;;5089599;28;20047;-68
2022/10/13 06:54:48;;;;;;;20.60;7.47;;;10.90;99.90;;;;;;5089939;28;20044;-74
2022/10/13 06:57:13;;;;;;;16.38;7.30;;;10.90;99.90;;;;;;5089985;28;20050;-70
2022/10/13 06:59:39;;;;;;;21.67;8.05;;;10.90;99.90;;;;;;5073181;28;20469;-70
2022/10/13 07:02:05;;;;;;;17.88;8.02;;;10.80;99.90;;;;;;5081408;28;20036;-71
2022/10/13 07:04:31;;;;;;;30.77;9.10;;;10.90;99.90;;;;;;5051675;28;20108;-73
2022/10/13 07:06:57;;;;;;;22.98;8.32;;;11.00;99.90;;;;;;5054548;28;20468;-71
2022/10/13 07:09:22;;;;;;;22.88;9.43;;;11.00;99.90;;;;;;5048799;28;20549;-74
2022/10/13 07:11:49;;;;;;;21.98;9.50;;;11.10;99.90;;;;;;5057232;28;20090;-75
2022/10/13 07:14:14;;;;;;;;;;;11.20;99.90;;;;;;5050658;28;20062;-75
2022/10/13 07:16:40;;;;;;;24.27;8.80;;;11.20;99.90;;;;;;5065249;28;20372;-74
2022/10/13 07:19:06;;;;;;;22.60;8.82;;;11.20;99.90;;;;;;5053206;28;20058;-70
2022/10/13 07:21:32;;;;;;;19.05;8.88;;;11.20;99.90;;;;;;5069856;28;20063;-73
2022/10/13 07:23:58;;;;;;;19.58;7.90;;;11.40;99.90;;;;;;5052478;28;20049;-73
2022/10/13 07:26:24;;;;;;;21.42;8.80;;;11.50;99.90;;;;;;5069075;28;20048;-70
2022/10/13 07:28:49;;;;;;;17.73;7.95;;;11.50;99.90;;;;;;5058527;28;20049;-76
2022/10/13 07:31:20;;;;;;;20.40;9.43;;;11.60;99.90;;;;;;5037300;28;20151;-74
2022/10/13 07:33:48;;;;;;;20.77;8.07;;;11.60;99.90;;;;;;5050177;28;20124;-75
2022/10/13 07:36:14;;;;;;;20.63;9.23;;;11.60;99.90;;;;;;5053665;28;20167;-76
2022/10/13 07:38:40;;;;;;;31.67;9.50;;;11.60;99.90;;;;;;5072880;28;20075;-74
2022/10/13 07:41:08;;;;;;;24.38;8.45;;;11.60;99.90;;;;;;5034082;28;20076;-74
2022/10/13 07:43:34;;;;;;;19.20;8.95;;;11.70;99.90;;;;;;5031118;28;20052;-75
2022/10/13 07:46:01;;;;;;;23.38;9.75;;;11.70;99.90;;;;;;5048632;28;20208;-78
2022/10/13 07:48:27;;;;;;;26.33;10.55;;;11.70;99.90;;;;;;5052386;28;20124;-74
2022/10/13 07:50:52;;;;;;;;;;;11.80;99.90;;;;;;5065111;28;20697;-75
2022/10/13 07:53:18;;;;;;;19.95;8.23;;;11.80;99.90;;;;;;5054727;28;19920;-75
2022/10/13 07:55:44;;;;;;;23.42;10.13;;;11.80;99.90;;;;;;5083720;28;20071;-74
2022/10/13 07:58:10;;;;;;;24.15;9.27;;;12.00;99.90;;;;;;5080067;28;20861;-78
2022/10/13 08:00:35;;;;;;;19.50;9.27;;;12.00;99.90;;;;;;5053726;28;20049;-74
2022/10/13 08:03:01;;;;;;;18.38;8.27;;;12.00;99.90;;;;;;5072750;28;20687;-74
2022/10/13 08:05:27;;;;;;;20.05;9.10;;;12.10;99.90;;;;;;5055003;28;20047;-75
2022/10/13 08:07:53;;;;;;;21.23;8.50;;;12.10;99.90;;;;;;5077393;28;20044;-76
2022/10/13 08:10:19;;;;;;;23.60;9.23;;;12.20;99.90;;;;;;5084947;28;20047;-74
2022/10/13 08:12:45;;;;;;;21.42;8.40;;;12.20;99.90;;;;;;5071192;28;20052;-74
2022/10/13 08:15:11;;;;;;;17.60;8.50;;;12.30;99.90;;;;;;5073259;28;20465;-77
2022/10/13 08:17:37;;;;;;;19.65;8.55;;;12.30;99.90;;;;;;5071620;28;20040;-78
2022/10/13 08:20:04;;;;;;;19.10;9.20;;;12.40;99.90;;;;;;5078018;28;20046;-75
2022/10/13 08:22:32;;;;;;;22.70;9.15;;;12.40;99.90;;;;;;5092696;28;20488;-74
2022/10/13 08:24:58;;;;;;;23.90;10.52;;;12.50;99.90;;;;;;5074636;28;20047;-74
2022/10/13 08:27:24;;;;;;;19.95;8.85;;;12.50;99.90;;;;;;5074693;28;20040;-74
2022/10/13 08:29:50;;;;;;;23.77;8.30;;;12.50;99.90;;;;;;5075360;28;20039;-75
2022/10/13 08:32:16;;;;;;;25.80;10.05;;;12.60;99.90;;;;;;5073268;28;20032;-79
2022/10/13 08:34:42;;;;;;;20.77;9.27;;;12.60;99.90;;;;;;5041756;28;20091;-75
2022/10/13 08:37:16;;;;;;;20.75;9.10;;;12.70;99.90;;;;;;5060165;28;20076;-74
2022/10/13 08:39:42;;;;;;;24.27;9.32;;;12.70;99.90;;;;;;5036110;28;20045;-74
2022/10/13 08:42:14;;;;;;;19.02;7.90;;;12.80;99.90;;;;;;5052159;28;20465;-76
2022/10/13 08:44:45;;;;;;;20.65;8.55;;;12.80;99.90;;;;;;5066012;28;20119;-73
2022/10/13 08:47:26;;;;;;;19.75;8.93;;;12.80;99.90;;;;;;5071279;28;20045;-74
2022/10/13 08:49:57;;;;;;;20.60;9.25;;;12.80;99.90;;;;;;5064067;28;20527;-75
2022/10/13 08:52:28;;;;;;;20.38;9.25;;;12.80;99.90;;;;;;5041225;28;20114;-75
2022/10/13 08:54:56;;;;;;;21.15;9.00;;;12.90;99.90;;;;;;5067974;28;20106;-73
2022/10/13 08:57:22;;;;;;;20.52;9.32;;;12.90;99.90;;;;;;5058523;28;20045;-75
2022/10/13 08:59:48;;;;;;;21.88;8.35;;;12.80;99.90;;;;;;5072289;28;20415;-78
2022/10/13 09:02:26;;;;;;;;;;;12.80;99.90;;;;;;5071998;28;20377;-76
2022/10/13 09:04:52;;;;;;;28.75;8.38;;;12.80;99.90;;;;;;5072241;28;20001;-76
2022/10/13 09:07:23;;;;;;;17.38;8.07;;;12.80;99.90;;;;;;5072373;28;20082;-74
2022/10/13 09:09:51;;;;;;;18.83;9.10;;;12.80;99.90;;;;;;5054101;28;20056;-74
2022/10/13 09:12:22;;;;;;;20.38;8.63;;;12.80;99.90;;;;;;5071435;28;20090;-74
2022/10/13 09:15:09;;;;;;;23.33;8.82;;;12.80;99.90;;;;;;5058453;28;20478;-74
2022/10/13 09:17:38;;;;;;;24.08;9.70;;;12.80;99.90;;;;;;5050801;28;20458;-74
2022/10/13 09:20:26;;;;;;;22.27;9.10;;;12.90;99.90;;;;;;5052038;28;20053;-74
2022/10/13 09:23:18;;;;;;;19.08;7.85;;;12.90;99.90;;;;;;5052487;28;20044;-74
2022/10/13 09:25:49;;;;;;;19.67;9.25;;;13.00;99.90;;;;;;5068848;28;20110;-74
2022/10/13 09:28:20;;;;;;;22.83;9.80;;;13.00;99.90;;;;;;5072354;28;20082;-74
2022/10/13 09:30:46;;;;;;;23.48;8.23;;;13.10;99.90;;;;;;5072142;28;20127;-74
2022/10/13 09:33:12;;;;;;;23.88;9.25;;;13.10;99.90;;;;;;5071107;28;20047;-74
2022/10/13 09:36:05;;;;;;;23.27;8.95;;;13.20;99.90;;;;;;5071216;28;20052;-74
2022/10/13 09:38:32;;;;;;;21.08;9.13;;;13.20;99.90;;;;;;5059247;28;20166;-74
2022/10/13 09:41:08;;;;;;;22.33;9.40;;;13.20;99.90;;;;;;5052989;28;20047;-74
2022/10/13 09:43:46;;;;;;;22.13;9.05;;;13.30;99.90;;;;;;5070477;28;20040;-72
2022/10/13 09:46:30;;;;;;;20.50;9.23;;;13.40;99.90;;;;;;5070953;28;20055;-73
2022/10/13 09:49:33;;;;;;;17.48;8.68;;;13.50;99.90;;;;;;5061756;28;20516;-75
2022/10/13 09:52:20;;;;;;;23.90;8.93;;;13.60;99.90;;;;;;5052330;28;20051;-76
2022/10/13 09:54:57;;;;;;;26.35;9.23;;;13.70;99.90;;;;;;5056650;28;20053;-73
2022/10/13 09:57:46;;;;;;;28.65;10.65;;;13.80;99.90;;;;;;5057464;28;20135;-78
2022/10/13 10:00:18;;;;;;;20.17;8.65;;;14.00;99.90;;;;;;5063274;28;20045;-74
2022/10/13 10:02:55;;;;;;;23.30;9.52;;;14.10;99.90;;;;;;5060331;28;20040;-73
2022/10/13 10:05:54;;;;;;;22.88;8.85;;;14.20;99.90;;;;;;5056091;28;20032;-74
2022/10/13 10:08:48;;;;;;;23.08;8.60;;;14.30;99.90;;;;;;5056833;28;20394;-72
2022/10/13 10:11:29;;;;;;;24.63;9.20;;;14.40;99.90;;;;;;5043114;28;20051;-73
2022/10/13 10:13:57;;;;;;;22.75;10.18;;;14.50;99.90;;;;;;5055157;28;20393;-72
2022/10/13 10:16:34;;;;;;;20.77;9.65;;;14.50;99.90;;;;;;5051005;28;20126;-75
2022/10/13 10:19:16;;;;;;;19.15;9.45;;;14.50;99.90;;;;;;5032726;28;20120;-75
2022/10/13 10:22:08;;;;;;;23.63;8.88;;;14.40;99.90;;;;;;5050139;28;20037;-70
2022/10/13 10:24:56;;;;;;;23.90;9.35;;;14.40;99.90;;;;;;5053106;28;20116;-71
2022/10/13 10:27:44;;;;;;;19.08;9.80;;;14.40;99.90;;;;;;5053002;28;20037;-71
2022/10/13 10:30:18;;;;;;;21.88;10.25;;;14.30;99.90;;;;;;5054113;28;20511;-72
2022/10/13 10:32:52;;;;;;;24.83;10.13;;;14.30;99.90;;;;;;5051681;28;20045;-71
2022/10/13 10:35:35;;;;;;;22.98;10.82;;;14.40;99.90;;;;;;5049082;28;20036;-74
2022/10/13 10:38:11;;;;;;;21.65;10.30;;;14.40;99.90;;;;;;5053257;28;20372;-75
2022/10/13 10:41:03;;;;;;;20.52;10.07;;;14.50;99.90;;;;;;5048510;28;20049;-74
2022/10/13 10:43:40;;;;;;;23.23;10.98;;;14.60;99.90;;;;;;5049801;28;20076;-77
2022/10/13 10:46:14;;;;;;;21.00;10.57;;;14.70;99.90;;;;;;5050416;28;20250;-76
2022/10/13 10:48:42;;;;;;;20.77;9.90;;;14.70;99.90;;;;;;5053016;28;20079;-73
2022/10/13 10:51:11;;;;;;;22.23;9.85;;;14.70;99.90;;;;;;5051517;28;20060;-76
2022/10/13 10:53:46;;;;;;;21.90;10.70;;;14.70;99.90;;;;;;5050169;28;20094;-78
2022/10/13 10:56:33;;;;;;;22.88;10.60;;;14.80;99.90;;;;;;5062567;28;20028;-72
2022/10/13 10:58:59;;;;;;;22.80;9.88;;;14.80;99.90;;;;;;5060773;28;20051;-76
2022/10/13 11:01:43;;;;;;;22.77;9.43;;;14.80;99.90;;;;;;5040799;28;20041;-73
2022/10/13 11:04:18;;;;;;;26.85;9.82;;;14.70;99.90;;;;;;5066916;28;20082;-76
2022/10/13 11:06:44;;;;;;;19.05;9.82;;;14.70;99.90;;;;;;5063255;28;20045;-72
2022/10/13 11:09:11;;;;;;;22.63;9.88;;;14.70;99.90;;;;;;5067019;28;20652;-77
2022/10/13 11:11:39;;;;;;;24.45;10.52;;;14.70;99.90;;;;;;5064241;28;20047;-72
2022/10/13 11:14:04;;;;;;;24.50;11.60;;;14.60;99.90;;;;;;5061337;28;20136;-74
2022/10/13 11:16:33;;;;;;;20.92;9.80;;;14.60;99.90;;;;;;5065971;28;20162;-78
2022/10/13 11:19:07;;;;;;;20.52;10.07;;;14.50;99.90;;;;;;5065972;28;20075;-78
2022/10/13 11:21:51;;;;;;;23.27;11.07;;;14.50;99.90;;;;;;5058084;28;20354;-79
2022/10/13 11:24:48;;;;;;;23.58;10.70;;;14.40;99.90;;;;;;5055809;28;20033;-74
2022/10/13 11:27:14;;;;;;;23.58;10.20;;;14.40;99.90;;;;;;5039579;28;20048;-74
2022/10/13 11:29:43;;;;;;;25.00;10.25;;;14.30;99.90;;;;;;5051180;28;20102;-76
2022/10/13 11:32:29;;;;;;;20.95;9.50;;;14.30;99.90;;;;;;5060807;28;20033;-73
2022/10/13 11:35:04;;;;;;;25.17;9.83;;;14.20;99.90;;;;;;5056974;28;20128;-73
2022/10/13 11:37:42;;;;;;;23.38;10.70;;;14.20;99.90;;;;;;5065758;28;20072;-72
2022/10/13 11:40:45;;;;;;;24.35;10.43;;;14.20;99.90;;;;;;5077161;28;20169;-72
2022/10/13 11:43:31;;;;;;;23.13;10.32;;;14.10;99.90;;;;;;5067436;28;20051;-73
2022/10/13 11:46:20;;;;;;;26.75;11.38;;;14.10;99.90;;;;;;5078656;28;20148;-74
2022/10/13 11:48:55;;;;;;;21.00;10.35;;;14.10;99.90;;;;;;5081570;28;20086;-73
2022/10/13 11:52:00;;;;;;;27.25;11.70;;;14.00;99.90;;;;;;5075201;28;20040;-75
2022/10/13 11:54:36;;;;;;;24.45;10.90;;;14.00;99.90;;;;;;5002427;28;20061;-71
2022/10/13 11:57:03;;;;;;;21.90;10.27;;;13.90;99.90;;;;;;5093816;28;20120;-74
2022/10/13 11:59:36;;;;;;;22.65;10.93;;;13.90;99.90;;;;;;5075702;28;20082;-74
2022/10/13 12:02:10;;;;;;;23.42;11.40;;;13.90;99.90;;;;;;5092342;28;20043;-73
2022/10/13 12:04:38;;;;;;;25.50;10.23;;;13.90;99.90;;;;;;5053948;28;20044;-77
2022/10/13 12:07:08;;;;;;;26.65;11.38;;;14.00;99.90;;;;;;5071726;28;20040;-74
2022/10/13 12:09:38;;;;;;;23.23;11.15;;;13.90;99.90;;;;;;5066951;28;20032;-74
2022/10/13 12:12:10;;;;;;;29.55;12.52;;;14.00;99.90;;;;;;5065515;28;20043;-73
2022/10/13 12:14:46;;;;;;;22.85;10.35;;;14.00;99.90;;;;;;5066540;28;20101;-76
2022/10/13 12:17:21;;;;;;;29.65;12.48;;;14.00;99.90;;;;;;5069558;28;20028;-73
2022/10/13 12:19:47;;;;;;;25.00;11.15;;;14.00;99.90;;;;;;5046067;28;20072;-72
2022/10/13 12:22:13;;;;;;;24.27;11.73;;;14.00;99.90;;;;;;5068781;28;20455;-76
2022/10/13 12:24:39;;;;;;;29.13;11.65;;;13.90;99.90;;;;;;5076805;28;20473;-77
2022/10/13 12:27:20;;;;;;;26.88;11.60;;;14.00;99.90;;;;;;5070080;28;20078;-73
2022/10/13 12:29:46;;;;;;;27.00;12.52;;;14.00;99.90;;;;;;5080706;28;20496;-72
2022/10/13 12:32:23;;;;;;;25.63;12.70;;;14.00;99.90;;;;;;5061546;28;20028;-72
2022/10/13 12:34:49;;;;;;;24.30;11.05;;;14.00;99.90;;;;;;5064979;28;20029;-72
2022/10/13 12:37:27;;;;;;;30.13;12.98;;;13.90;99.90;;;;;;5027603;28;20056;-72
2022/10/13 12:39:56;;;;;;;28.02;12.73;;;13.90;99.90;;;;;;5058713;28;20044;-74
2022/10/13 12:42:28;;;;;;;31.92;12.65;;;13.90;99.90;;;;;;5066247;28;20125;-74
2022/10/13 12:44:54;;;;;;;34.55;11.85;;;13.90;99.90;;;;;;5064284;28;20039;-73
2022/10/13 12:47:39;;;;;;;33.60;13.05;;;13.90;99.90;;;;;;5067944;28;20477;-72
2022/10/13 12:50:28;;;;;;;26.73;13.43;;;13.90;99.90;;;;;;5047467;28;20053;-72
2022/10/13 12:53:22;;;;;;;25.17;11.95;;;14.00;99.90;;;;;;5065606;28;20094;-73
2022/10/13 12:55:54;;;;;;;27.10;11.48;;;14.10;99.90;;;;;;5064307;28;20048;-72
2022/10/13 12:58:33;;;;;;;27.77;11.25;;;14.20;99.90;;;;;;5070656;28;20428;-72
2022/10/13 13:01:13;;;;;;;24.08;12.23;;;14.20;99.90;;;;;;5066513;28;20051;-75